createdAt,value
2023-05-19T00:01:15.360Z,10.50
2023-05-19T00:03:57.865Z,10.40
2023-05-19T00:06:26.975Z,10.40
2023-05-19T00:09:01.697Z,10.40
2023-05-19T00:11:29.264Z,10.30
2023-05-19T00:13:57.086Z,10.40
2023-05-19T00:16:25.458Z,10.40
2023-05-19T00:18:53.480Z,10.30
2023-05-19T00:21:21.066Z,10.20
2023-05-19T00:23:48.148Z,10.20
2023-05-19T00:26:15.234Z,10.10
2023-05-19T00:28:51.791Z,10.00
2023-05-19T00:31:18.831Z,10.00
2023-05-19T00:33:46.013Z,10.00
2023-05-19T00:36:13.063Z,10.00
2023-05-19T00:38:40.242Z,10.00
2023-05-19T00:41:07.385Z,9.90
2023-05-19T00:43:37.158Z,9.90
2023-05-19T00:46:04.218Z,9.90
2023-05-19T00:48:31.330Z,9.90
2023-05-19T00:51:02.577Z,9.90
2023-05-19T00:53:29.684Z,9.90
2023-05-19T00:55:56.710Z,9.90
2023-05-19T00:58:25.787Z,9.80
2023-05-19T01:00:52.802Z,9.80
2023-05-19T01:03:20.878Z,9.70
2023-05-19T01:05:48.175Z,9.70
2023-05-19T01:08:15.222Z,9.70
2023-05-19T01:10:42.269Z,9.70
2023-05-19T01:13:09.726Z,9.60
2023-05-19T01:15:59.078Z,9.60
2023-05-19T01:19:04.016Z,9.70
2023-05-19T01:21:45.591Z,9.60
2023-05-19T01:24:49.902Z,9.60
2023-05-19T01:27:35.836Z,9.60
2023-05-19T01:30:31.414Z,9.60
2023-05-19T01:33:03.597Z,9.60
2023-05-19T01:35:30.804Z,9.60
2023-05-19T01:37:59.264Z,9.60
2023-05-19T01:40:26.713Z,9.60
2023-05-19T01:42:56.636Z,9.50
2023-05-19T01:45:26.513Z,9.40
2023-05-19T01:47:58.325Z,9.50
2023-05-19T01:50:25.467Z,9.50
2023-05-19T01:52:52.697Z,9.50
2023-05-19T01:55:19.962Z,9.40
2023-05-19T01:58:07.591Z,9.40
2023-05-19T02:01:01.522Z,9.40
2023-05-19T02:04:09.942Z,9.40
2023-05-19T02:07:10.063Z,9.30
2023-05-19T02:09:42.511Z,9.40
2023-05-19T02:12:12.589Z,9.30
2023-05-19T02:14:40.463Z,9.30
2023-05-19T02:17:07.504Z,9.30
2023-05-19T02:19:37.139Z,9.30
2023-05-19T02:22:04.265Z,9.30
2023-05-19T02:24:31.399Z,9.30
2023-05-19T02:26:59.776Z,9.40
2023-05-19T02:29:26.856Z,9.40
2023-05-19T02:31:53.920Z,9.40
2023-05-19T02:34:21.255Z,9.40
2023-05-19T02:36:50.149Z,9.40
2023-05-19T02:39:17.158Z,9.40
2023-05-19T02:41:44.214Z,9.40
2023-05-19T02:44:11.323Z,9.40
2023-05-19T02:46:38.449Z,9.40
2023-05-19T02:49:05.571Z,9.50
2023-05-19T02:51:32.608Z,9.40
2023-05-19T02:54:00.502Z,9.30
2023-05-19T02:56:28.411Z,9.30
2023-05-19T02:58:55.382Z,9.40
2023-05-19T03:01:23.318Z,9.30
2023-05-19T03:03:50.520Z,9.40
2023-05-19T03:06:18.238Z,9.40
2023-05-19T03:08:45.337Z,9.40
2023-05-19T03:11:12.476Z,9.40
2023-05-19T03:13:39.548Z,9.40
2023-05-19T03:16:08.503Z,9.30
2023-05-19T03:18:36.329Z,9.30
2023-05-19T03:21:03.541Z,9.20
2023-05-19T03:23:30.591Z,9.20
2023-05-19T03:25:58.219Z,9.10
2023-05-19T03:28:27.430Z,9.10
2023-05-19T03:30:54.518Z,9.10
2023-05-19T03:33:25.310Z,9.10
2023-05-19T03:35:53.193Z,9.00
2023-05-19T03:38:20.831Z,9.10
2023-05-19T03:40:53.868Z,9.10
2023-05-19T03:43:20.893Z,9.00
2023-05-19T03:45:53.783Z,9.00
2023-05-19T03:48:50.113Z,9.00
2023-05-19T03:51:49.270Z,9.00
2023-05-19T03:54:36.643Z,8.90
2023-05-19T03:57:03.747Z,8.90
2023-05-19T03:59:31.519Z,8.90
2023-05-19T04:01:58.619Z,8.80
2023-05-19T04:04:26.945Z,8.80
2023-05-19T04:06:54.044Z,8.80
2023-05-19T04:09:21.657Z,8.80
2023-05-19T04:11:48.674Z,8.80
2023-05-19T04:14:16.226Z,8.80
2023-05-19T04:16:43.682Z,8.70
2023-05-19T04:19:10.794Z,8.70
2023-05-19T04:21:37.933Z,8.60
2023-05-19T04:24:06.679Z,8.70
2023-05-19T04:26:34.689Z,8.70
2023-05-19T04:29:04.824Z,8.70
2023-05-19T04:31:34.632Z,8.70
2023-05-19T04:34:03.234Z,8.70
2023-05-19T04:36:31.431Z,8.80
2023-05-19T04:39:02.582Z,8.80
2023-05-19T04:41:30.769Z,8.90
2023-05-19T04:43:57.799Z,9.00
2023-05-19T04:46:26.346Z,9.00
2023-05-19T04:48:57.303Z,9.10
2023-05-19T04:51:30.277Z,9.20
2023-05-19T04:53:59.779Z,9.30
2023-05-19T04:56:27.563Z,9.40
2023-05-19T04:58:55.566Z,9.50
2023-05-19T05:01:26.285Z,9.50
2023-05-19T05:03:55.595Z,9.60
2023-05-19T05:06:23.169Z,9.70
2023-05-19T05:08:51.159Z,9.70
2023-05-19T05:11:18.672Z,9.80
2023-05-19T05:13:47.001Z,9.80
2023-05-19T05:16:14.855Z,9.90
2023-05-19T05:18:44.851Z,9.90
2023-05-19T05:21:12.910Z,10.00
2023-05-19T05:23:41.052Z,10.10
2023-05-19T05:26:19.928Z,10.10
2023-05-19T05:28:49.808Z,10.20
2023-05-19T05:31:17.270Z,10.40
2023-05-19T05:33:45.098Z,10.50
2023-05-19T05:36:13.897Z,10.60
2023-05-19T05:38:40.983Z,10.60
2023-05-19T05:41:08.295Z,10.70
2023-05-19T05:43:36.942Z,10.80
2023-05-19T05:46:04.878Z,11.00
2023-05-19T05:48:32.164Z,11.00
2023-05-19T05:50:59.631Z,11.00
2023-05-19T05:53:31.158Z,11.10
2023-05-19T05:56:00.752Z,11.10
2023-05-19T05:58:37.858Z,11.10
2023-05-19T06:01:05.688Z,11.20
2023-05-19T06:03:33.726Z,11.30
2023-05-19T06:06:08.954Z,11.40
2023-05-19T06:08:36.128Z,11.50
2023-05-19T06:11:08.654Z,11.70
2023-05-19T06:13:36.940Z,11.80
2023-05-19T06:16:07.381Z,12.00
2023-05-19T06:18:41.265Z,12.10
2023-05-19T06:21:10.508Z,12.30
2023-05-19T06:23:38.011Z,12.50
2023-05-19T06:26:06.975Z,12.60
2023-05-19T06:28:34.298Z,12.80
2023-05-19T06:31:01.416Z,13.00
2023-05-19T06:33:43.354Z,13.00
2023-05-19T06:36:10.892Z,13.10
2023-05-19T06:38:39.992Z,13.00
2023-05-19T06:41:07.464Z,13.10
2023-05-19T06:43:35.105Z,13.10
2023-05-19T06:46:04.855Z,13.00
2023-05-19T06:48:33.653Z,13.10
2023-05-19T06:51:00.859Z,12.90
2023-05-19T06:53:28.031Z,13.00
2023-05-19T06:55:59.735Z,13.10
2023-05-19T06:58:30.642Z,13.20
2023-05-19T07:00:59.129Z,13.40
2023-05-19T07:03:31.338Z,13.50
2023-05-19T07:06:02.475Z,13.50
2023-05-19T07:08:29.685Z,13.50
2023-05-19T07:10:59.634Z,13.50
2023-05-19T07:13:27.660Z,13.40
2023-05-19T07:15:58.674Z,13.30
2023-05-19T07:18:31.931Z,13.30
2023-05-19T07:20:59.216Z,13.30
2023-05-19T07:23:26.527Z,13.40
2023-05-19T07:25:57.217Z,13.40
2023-05-19T07:28:24.289Z,13.60
2023-05-19T07:30:52.169Z,13.70
2023-05-19T07:33:19.232Z,13.80
2023-05-19T07:35:46.506Z,13.70
2023-05-19T07:38:13.491Z,13.60
2023-05-19T07:40:40.629Z,13.60
2023-05-19T07:43:07.772Z,13.60
2023-05-19T07:45:34.793Z,13.60
2023-05-19T07:48:01.826Z,13.70
2023-05-19T07:50:28.838Z,13.70
2023-05-19T07:52:56.206Z,13.80
2023-05-19T07:55:23.378Z,14.00
2023-05-19T07:57:51.090Z,14.10
2023-05-19T08:00:18.325Z,14.20
2023-05-19T08:02:45.507Z,14.30
2023-05-19T08:05:12.498Z,14.30
2023-05-19T08:07:40.088Z,14.40
2023-05-19T08:10:07.546Z,14.40
2023-05-19T08:12:34.601Z,14.50
2023-05-19T08:15:02.071Z,14.50
2023-05-19T08:17:29.170Z,14.70
2023-05-19T08:19:56.282Z,14.70
2023-05-19T08:22:23.418Z,14.80
2023-05-19T08:24:51.936Z,14.70
2023-05-19T08:27:19.021Z,14.80
2023-05-19T08:29:46.021Z,14.80
2023-05-19T08:32:13.505Z,14.90
2023-05-19T08:34:41.411Z,15.10
2023-05-19T08:37:08.524Z,14.80
2023-05-19T08:39:35.682Z,14.80
2023-05-19T08:42:02.820Z,14.70
2023-05-19T08:44:31.066Z,14.70
2023-05-19T08:46:58.516Z,14.70
2023-05-19T08:49:28.514Z,14.70
2023-05-19T08:52:15.076Z,14.80
2023-05-19T08:54:46.250Z,14.90
2023-05-19T08:57:13.551Z,14.80
2023-05-19T08:59:41.367Z,14.60
2023-05-19T09:02:08.537Z,14.50
2023-05-19T09:04:36.033Z,14.40
2023-05-19T09:07:04.156Z,14.40
2023-05-19T09:09:31.249Z,14.40
2023-05-19T09:11:58.410Z,14.40
2023-05-19T09:14:25.593Z,14.40
2023-05-19T09:16:53.189Z,14.40
2023-05-19T09:19:21.502Z,14.40
2023-05-19T09:21:58.836Z,14.40
2023-05-19T09:24:26.309Z,14.40
2023-05-19T09:26:56.552Z,14.40
2023-05-19T09:29:25.427Z,14.30
2023-05-19T09:32:01.017Z,14.40
2023-05-19T09:34:28.252Z,14.40
2023-05-19T09:36:55.288Z,14.40
2023-05-19T09:39:26.077Z,14.60
2023-05-19T09:41:58.683Z,14.90
2023-05-19T09:44:30.550Z,14.90
2023-05-19T09:46:58.594Z,15.10
2023-05-19T09:49:32.985Z,15.00
2023-05-19T09:52:04.013Z,15.10
2023-05-19T09:54:32.657Z,15.00
2023-05-19T09:57:00.355Z,15.00
2023-05-19T09:59:30.545Z,14.70
2023-05-19T10:01:59.949Z,14.70
2023-05-19T10:04:28.129Z,14.50
2023-05-19T10:06:56.194Z,14.60
2023-05-19T10:09:26.957Z,14.70
2023-05-19T10:11:55.504Z,14.70
2023-05-19T10:14:26.664Z,14.60
2023-05-19T10:16:55.455Z,14.40
2023-05-19T10:19:27.255Z,14.40
2023-05-19T10:21:54.591Z,14.40
2023-05-19T10:24:21.872Z,14.50
2023-05-19T10:26:55.438Z,14.50
2023-05-19T10:29:25.684Z,14.50
2023-05-19T10:31:52.816Z,14.60
2023-05-19T10:34:22.222Z,14.60
2023-05-19T10:36:50.634Z,14.60
2023-05-19T10:39:29.238Z,14.70
2023-05-19T10:42:08.226Z,14.90
2023-05-19T10:44:58.925Z,14.90
2023-05-19T10:47:26.454Z,15.10
2023-05-19T10:49:56.790Z,15.00
2023-05-19T10:52:26.334Z,15.00
2023-05-19T10:54:55.003Z,15.00
2023-05-19T10:57:28.629Z,14.90
2023-05-19T10:59:56.671Z,15.00
2023-05-19T11:02:43.358Z,15.10
2023-05-19T11:05:18.735Z,15.20
2023-05-19T11:07:56.368Z,15.50
2023-05-19T11:10:24.087Z,15.60
2023-05-19T11:15:18.976Z,15.70
2023-05-19T11:17:48.671Z,15.80
2023-05-19T11:20:29.381Z,16.00
2023-05-19T11:23:06.140Z,16.00
2023-05-19T11:25:49.964Z,16.00
2023-05-19T11:28:28.079Z,16.20
2023-05-19T11:30:57.709Z,16.40
2023-05-19T11:33:27.596Z,16.50
2023-05-19T11:35:58.329Z,16.50
2023-05-19T11:38:25.744Z,16.50
2023-05-19T11:40:56.489Z,16.50
2023-05-19T11:43:24.902Z,16.40
2023-05-19T11:45:52.175Z,16.20
2023-05-19T11:48:21.559Z,16.50
2023-05-19T11:50:48.625Z,16.60
2023-05-19T11:53:16.799Z,16.80
2023-05-19T11:55:46.313Z,16.80
2023-05-19T11:58:13.465Z,16.90
2023-05-19T12:00:41.315Z,16.90
2023-05-19T12:03:09.102Z,17.00
2023-05-19T12:05:43.701Z,17.00
2023-05-19T12:08:11.931Z,17.10
2023-05-19T12:10:39.686Z,17.20
2023-05-19T12:13:10.592Z,17.20
2023-05-19T12:15:38.156Z,17.20
2023-05-19T12:18:05.812Z,17.40
2023-05-19T12:20:32.936Z,17.70
2023-05-19T12:23:00.410Z,17.90
2023-05-19T12:25:28.025Z,17.80
2023-05-19T12:28:03.294Z,17.80
2023-05-19T12:30:31.349Z,17.60
2023-05-19T12:32:58.890Z,17.50
2023-05-19T12:35:30.184Z,17.60
2023-05-19T12:37:57.996Z,17.60
2023-05-19T12:40:26.326Z,17.60
2023-05-19T12:42:59.345Z,17.70
2023-05-19T12:45:28.501Z,17.70
2023-05-19T12:47:56.484Z,17.80
2023-05-19T12:50:30.213Z,18.00
2023-05-19T12:52:59.444Z,18.10
2023-05-19T12:55:26.408Z,17.90
2023-05-19T12:57:57.002Z,17.90
2023-05-19T13:00:28.132Z,18.00
2023-05-19T13:03:08.785Z,17.80
2023-05-19T13:05:40.006Z,17.80
2023-05-19T13:08:09.089Z,17.90
2023-05-19T13:10:37.293Z,17.90
2023-05-19T13:13:04.661Z,17.90
2023-05-19T13:15:34.625Z,17.70
2023-05-19T13:18:02.823Z,17.80
2023-05-19T13:20:30.037Z,17.70
2023-05-19T13:22:57.594Z,17.70
2023-05-19T13:25:24.648Z,17.70
2023-05-19T13:27:51.723Z,17.60
2023-05-19T13:30:19.198Z,17.80
2023-05-19T13:32:46.453Z,17.80
2023-05-19T13:35:14.046Z,17.80
2023-05-19T13:37:44.057Z,18.10
2023-05-19T13:40:11.626Z,18.20
2023-05-19T13:42:38.630Z,18.20
2023-05-19T13:45:06.384Z,18.20
2023-05-19T13:47:34.411Z,18.20
2023-05-19T13:50:03.072Z,18.20
2023-05-19T13:52:30.571Z,18.20
2023-05-19T13:54:57.806Z,18.20
2023-05-19T13:57:25.683Z,18.50
2023-05-19T14:00:01.998Z,18.50
2023-05-19T14:02:39.949Z,18.50
2023-05-19T14:05:07.652Z,18.50
2023-05-19T14:07:35.402Z,18.30
2023-05-19T14:10:04.165Z,18.20
2023-05-19T14:12:41.607Z,18.30
2023-05-19T14:15:14.890Z,18.30
2023-05-19T14:17:42.082Z,18.40
2023-05-19T14:20:09.870Z,18.60
2023-05-19T14:22:36.864Z,18.50
2023-05-19T14:25:03.966Z,18.50
2023-05-19T14:27:30.980Z,18.60
2023-05-19T14:29:58.124Z,18.60
2023-05-19T14:32:26.287Z,18.80
2023-05-19T14:34:54.371Z,18.60
2023-05-19T14:37:21.308Z,18.70
2023-05-19T14:39:48.341Z,18.60
2023-05-19T14:42:15.390Z,18.70
2023-05-19T14:44:42.413Z,18.60
2023-05-19T14:47:11.434Z,18.40
2023-05-19T14:49:38.637Z,18.50
2023-05-19T14:52:06.015Z,18.50
2023-05-19T14:54:33.152Z,18.60
2023-05-19T14:57:00.390Z,18.70
2023-05-19T14:59:27.722Z,18.80
2023-05-19T15:01:54.697Z,18.80
2023-05-19T15:04:21.839Z,18.90
2023-05-19T15:06:58.150Z,18.80
2023-05-19T15:09:36.301Z,18.70
2023-05-19T15:12:03.487Z,18.70
2023-05-19T15:14:31.302Z,18.80
2023-05-19T15:16:59.127Z,18.60
2023-05-19T15:19:26.515Z,18.40
2023-05-19T15:21:53.783Z,18.30
2023-05-19T15:24:20.907Z,18.30
2023-05-19T15:26:47.984Z,18.10
2023-05-19T15:29:15.180Z,18.20
2023-05-19T15:31:42.285Z,18.10
2023-05-19T15:34:09.366Z,18.30
2023-05-19T15:36:36.439Z,18.30
2023-05-19T15:39:03.985Z,18.30
2023-05-19T15:41:31.087Z,18.20
2023-05-19T15:44:00.565Z,18.00
2023-05-19T15:46:28.013Z,18.00
2023-05-19T15:48:55.511Z,18.00
2023-05-19T15:51:22.703Z,18.00
2023-05-19T15:53:49.690Z,18.10
2023-05-19T15:56:16.922Z,17.90
2023-05-19T15:58:44.030Z,17.90
2023-05-19T16:01:11.305Z,17.70
2023-05-19T16:03:38.390Z,17.70
2023-05-19T16:06:05.557Z,17.70
2023-05-19T16:08:32.544Z,17.80
2023-05-19T16:10:59.751Z,17.70
2023-05-19T16:13:26.934Z,17.70
2023-05-19T16:15:54.111Z,17.60
2023-05-19T16:18:21.221Z,17.50
2023-05-19T16:20:48.373Z,17.50
2023-05-19T16:23:15.469Z,17.50
2023-05-19T16:25:42.534Z,17.50
2023-05-19T16:28:09.509Z,17.40
2023-05-19T16:30:37.018Z,17.40
2023-05-19T16:33:04.342Z,17.40
2023-05-19T16:35:31.556Z,17.50
2023-05-19T16:37:58.582Z,17.40
2023-05-19T16:40:26.248Z,17.30
2023-05-19T16:42:53.839Z,17.30
2023-05-19T16:45:21.088Z,17.30
2023-05-19T16:47:48.238Z,17.30
2023-05-19T16:50:15.324Z,17.30
2023-05-19T16:52:42.617Z,17.30
2023-05-19T16:55:09.965Z,17.30
2023-05-19T16:57:37.032Z,17.30
2023-05-19T17:00:04.361Z,17.20
2023-05-19T17:02:31.456Z,17.20
2023-05-19T17:04:58.595Z,17.20
2023-05-19T17:07:28.042Z,17.20
2023-05-19T17:09:56.082Z,17.10
2023-05-19T17:12:23.465Z,17.20
2023-05-19T17:14:52.235Z,17.20
2023-05-19T17:17:19.323Z,17.20
2023-05-19T17:19:47.002Z,17.30
2023-05-19T17:22:14.316Z,17.30
2023-05-19T17:24:41.570Z,17.30
2023-05-19T17:27:08.567Z,17.30
2023-05-19T17:29:36.906Z,17.20
2023-05-19T17:32:04.538Z,17.20
2023-05-19T17:34:31.770Z,17.10
2023-05-19T17:36:58.941Z,17.10
2023-05-19T17:39:25.953Z,17.10
2023-05-19T17:41:52.926Z,17.00
2023-05-19T17:44:20.007Z,17.00
2023-05-19T17:46:47.024Z,16.80
2023-05-19T17:49:15.443Z,16.80
2023-05-19T17:51:42.695Z,16.70
2023-05-19T17:54:09.976Z,16.70
2023-05-19T17:56:39.745Z,16.80
2023-05-19T17:59:06.955Z,16.80
2023-05-19T18:01:34.143Z,16.80
2023-05-19T18:04:01.593Z,16.80
2023-05-19T18:06:28.764Z,16.70
2023-05-19T18:08:55.826Z,16.60
2023-05-19T18:11:23.226Z,16.50
2023-05-19T18:13:50.218Z,16.40
2023-05-19T18:16:17.244Z,16.30
2023-05-19T18:18:47.150Z,16.30
2023-05-19T18:21:17.912Z,16.30
2023-05-19T18:23:45.632Z,16.30
2023-05-19T18:26:13.270Z,16.20
2023-05-19T18:28:40.859Z,16.20
2023-05-19T18:31:09.169Z,16.10
2023-05-19T18:33:36.231Z,16.10
2023-05-19T18:36:03.274Z,16.00
2023-05-19T18:38:30.340Z,15.90
2023-05-19T18:41:00.882Z,15.80
2023-05-19T18:43:30.267Z,15.70
2023-05-19T18:45:57.321Z,15.60
2023-05-19T18:48:25.771Z,15.50
2023-05-19T18:50:52.959Z,15.40
2023-05-19T18:53:21.764Z,15.40
2023-05-19T18:55:48.823Z,15.30
2023-05-19T18:58:15.889Z,15.10
2023-05-19T19:00:42.921Z,15.10
2023-05-19T19:03:12.029Z,15.00
2023-05-19T19:05:39.781Z,15.00
2023-05-19T19:08:06.840Z,14.90
2023-05-19T19:10:37.447Z,14.90
2023-05-19T19:13:04.715Z,14.80
2023-05-19T19:15:31.857Z,14.80
2023-05-19T19:17:58.927Z,14.80
2023-05-19T19:20:25.964Z,14.60
2023-05-19T19:22:53.646Z,14.50
2023-05-19T19:25:23.111Z,14.40
2023-05-19T19:27:50.780Z,14.50
2023-05-19T19:30:17.827Z,14.40
2023-05-19T19:32:44.922Z,14.30
2023-05-19T19:35:12.164Z,14.30
2023-05-19T19:37:39.182Z,14.10
2023-05-19T19:40:06.899Z,14.10
2023-05-19T19:42:34.298Z,14.00
2023-05-19T19:45:01.321Z,13.90
2023-05-19T19:47:28.335Z,13.90
2023-05-19T19:49:56.173Z,13.80
2023-05-19T19:52:23.189Z,13.80
2023-05-19T19:54:50.229Z,13.70
2023-05-19T19:57:17.500Z,13.60
2023-05-19T19:59:46.034Z,13.50
2023-05-19T20:02:13.864Z,13.50
2023-05-19T20:04:40.971Z,13.50
2023-05-19T20:07:08.032Z,13.50
2023-05-19T20:09:35.003Z,13.40
2023-05-19T20:12:01.945Z,13.50
2023-05-19T20:14:29.281Z,13.40
2023-05-19T20:16:56.585Z,13.40
2023-05-19T20:19:28.046Z,13.30
2023-05-19T20:21:55.119Z,13.30
2023-05-19T20:24:22.155Z,13.20
2023-05-19T20:26:49.156Z,13.20
2023-05-19T20:29:16.191Z,13.20
2023-05-19T20:31:43.231Z,13.10
2023-05-19T20:34:10.262Z,13.10
2023-05-19T20:36:37.230Z,13.00
2023-05-19T20:39:04.280Z,13.00
2023-05-19T20:41:31.712Z,12.90
2023-05-19T20:43:58.726Z,12.90
2023-05-19T20:46:25.788Z,12.80
2023-05-19T20:48:52.836Z,12.70
2023-05-19T20:51:19.978Z,12.70
2023-05-19T20:53:47.010Z,12.70
2023-05-19T20:56:14.209Z,12.60
2023-05-19T20:58:41.331Z,12.60
2023-05-19T21:01:08.326Z,12.50
2023-05-19T21:03:35.510Z,12.50
2023-05-19T21:06:02.524Z,12.50
2023-05-19T21:08:30.051Z,12.50
2023-05-19T21:10:57.058Z,12.40
2023-05-19T21:13:24.074Z,12.40
2023-05-19T21:15:51.053Z,12.40
2023-05-19T21:18:18.023Z,12.30
2023-05-19T21:20:45.094Z,12.30
2023-05-19T21:23:12.391Z,12.20
2023-05-19T21:25:40.028Z,12.10
2023-05-19T21:28:07.017Z,12.10
2023-05-19T21:30:34.246Z,12.10
2023-05-19T21:33:01.446Z,12.00
2023-05-19T21:35:28.441Z,11.90
2023-05-19T21:37:55.892Z,11.90
2023-05-19T21:40:22.992Z,11.80
2023-05-19T21:42:50.042Z,11.70
2023-05-19T21:45:17.043Z,11.70
2023-05-19T21:47:44.222Z,11.70
2023-05-19T21:50:11.369Z,11.60
2023-05-19T21:52:38.782Z,11.60
2023-05-19T21:55:06.511Z,11.50
2023-05-19T21:57:33.541Z,11.40
2023-05-19T22:00:00.749Z,11.40
2023-05-19T22:02:27.789Z,11.40
2023-05-19T22:04:54.818Z,11.50
2023-05-19T22:07:27.017Z,11.50
2023-05-19T22:09:54.224Z,11.50
2023-05-19T22:12:21.219Z,11.50
2023-05-19T22:14:48.288Z,11.50
2023-05-19T22:17:15.600Z,11.50
2023-05-19T22:19:42.596Z,11.40
2023-05-19T22:22:14.172Z,11.40
2023-05-19T22:24:41.791Z,11.40
2023-05-19T22:27:08.807Z,11.40
2023-05-19T22:29:38.753Z,11.40
2023-05-19T22:32:07.923Z,11.40
2023-05-19T22:34:34.964Z,11.30
2023-05-19T22:37:02.131Z,11.30
2023-05-19T22:39:29.170Z,11.30
2023-05-19T22:41:56.237Z,11.30
2023-05-19T22:44:23.206Z,11.30
2023-05-19T22:46:50.232Z,11.30
2023-05-19T22:49:17.185Z,11.30
2023-05-19T22:51:44.219Z,11.30
2023-05-19T22:54:11.509Z,11.20
2023-05-19T22:56:38.574Z,11.20
2023-05-19T22:59:05.564Z,11.20
2023-05-19T23:01:32.597Z,11.20
2023-05-19T23:03:59.644Z,11.20
2023-05-19T23:06:26.936Z,11.10
2023-05-19T23:09:03.616Z,11.20
2023-05-19T23:11:30.721Z,11.20
2023-05-19T23:13:57.685Z,11.10
2023-05-19T23:16:24.770Z,11.10
2023-05-19T23:18:51.831Z,11.10
2023-05-19T23:21:18.869Z,11.10
2023-05-19T23:23:45.826Z,11.10
2023-05-19T23:26:15.619Z,11.00
2023-05-19T23:28:43.131Z,11.00
2023-05-19T23:31:10.184Z,11.00
2023-05-19T23:33:37.226Z,11.00
2023-05-19T23:36:07.949Z,10.90
2023-05-19T23:38:35.727Z,10.90
2023-05-19T23:41:02.992Z,10.90
2023-05-19T23:43:29.984Z,10.90
2023-05-19T23:45:57.019Z,10.90
2023-05-19T23:48:24.056Z,10.80
2023-05-19T23:50:51.005Z,10.80
2023-05-19T23:53:18.014Z,10.80
2023-05-19T23:55:45.079Z,10.70
2023-05-19T23:58:12.123Z,10.70
